Time;durP1;ratioP1;P1;durP2;ratioP2;P2;SDS_P1;SDS_P2;PMS_P1;PMS_P2;Temp;Humidity;BMP_temperature;BMP_pressure;BME280_temperature;BME280_humidity;BME280_pressure;Samples;Min_cycle;Max_cycle;Signal;HPM_P1;HPM_P2
2023/04/11 00:01:22;;;;;;;2.83;2.63;;;;;;;;;;5119523;28;20203;-63
2023/04/11 00:03:51;;;;;;;2.58;2.38;;;;;;;;;;5119892;28;20513;-63
2023/04/11 00:06:19;;;;;;;2.55;2.35;;;;;;;;;;5120101;28;20237;-63
2023/04/11 00:08:46;;;;;;;2.92;2.72;;;;;;;;;;5119966;28;20264;-63
2023/04/11 00:11:14;;;;;;;2.58;2.38;;;;;;;;;;5119773;28;20234;-63
2023/04/11 00:13:42;;;;;;;3.08;2.50;;;;;;;;;;5119750;28;20485;-63
2023/04/11 00:16:10;;;;;;;2.60;2.40;;;;;;;;;;5119729;28;20238;-63
2023/04/11 00:18:38;;;;;;;2.90;2.65;;;;;;;;;;5119640;28;20266;-63
2023/04/11 00:21:07;;;;;;;2.80;2.60;;;;;;;;;;5119378;28;20220;-63
2023/04/11 00:23:35;;;;;;;2.63;2.42;;;;;;;;;;5119320;28;20266;-63
2023/04/11 00:26:02;;;;;;;2.70;2.50;;;;;;;;;;5119601;28;20246;-63
2023/04/11 00:28:29;;;;;;;2.90;2.70;;;;;;;;;;5119489;28;20210;-63
2023/04/11 00:30:57;;;;;;;2.80;2.60;;;;;;;;;;5119675;28;20232;-63
2023/04/11 00:33:25;;;;;;;2.78;2.58;;;;;;;;;;5119409;28;20302;-63
2023/04/11 00:35:52;;;;;;;2.55;2.35;;;;;;;;;;5119132;28;20531;-63
2023/04/11 00:38:21;;;;;;;2.80;2.60;;;;;;;;;;5119237;28;20270;-63
2023/04/11 00:40:48;;;;;;;2.78;2.58;;;;;;;;;;5118214;28;20494;-63
2023/04/11 00:43:16;;;;;;;2.65;2.45;;;;;;;;;;5119615;28;20211;-63
2023/04/11 00:45:43;;;;;;;2.60;2.40;;;;;;;;;;5119515;28;20202;-64
2023/04/11 00:48:11;;;;;;;2.78;2.58;;;;;;;;;;5119163;28;20199;-63
2023/04/11 00:50:40;;;;;;;2.50;2.30;;;;;;;;;;5118940;28;20203;-63
2023/04/11 00:53:09;;;;;;;2.80;2.50;;;;;;;;;;5119483;28;20646;-64
2023/04/11 00:55:38;;;;;;;2.50;2.30;;;;;;;;;;5119282;28;20538;-63
2023/04/11 00:58:08;;;;;;;2.97;2.78;;;;;;;;;;5118971;28;20254;-64
2023/04/11 01:00:37;;;;;;;2.53;2.33;;;;;;;;;;5118927;28;20214;-64
2023/04/11 01:03:05;;;;;;;2.65;2.45;;;;;;;;;;5118795;28;20210;-63
2023/04/11 01:05:33;;;;;;;3.00;2.70;;;;;;;;;;5118478;28;20203;-63
2023/04/11 01:08:01;;;;;;;2.67;2.30;;;;;;;;;;5118684;28;20238;-63
2023/04/11 01:10:31;;;;;;;2.55;2.33;;;;;;;;;;5118385;28;20217;-64
2023/04/11 01:13:01;;;;;;;2.80;2.60;;;;;;;;;;5118410;28;20301;-64
2023/04/11 01:15:28;;;;;;;2.67;2.47;;;;;;;;;;5119039;28;20203;-64
2023/04/11 01:17:56;;;;;;;2.75;2.55;;;;;;;;;;5117917;28;20222;-64
2023/04/11 01:20:25;;;;;;;2.70;2.50;;;;;;;;;;5118000;28;20239;-64
2023/04/11 01:22:52;;;;;;;2.50;2.30;;;;;;;;;;5118358;28;20241;-64
2023/04/11 01:25:22;;;;;;;2.45;2.25;;;;;;;;;;5118434;28;20210;-63
2023/04/11 01:27:51;;;;;;;2.72;2.53;;;;;;;;;;5118254;28;20199;-64
2023/04/11 01:30:18;;;;;;;2.80;2.60;;;;;;;;;;5118125;28;20214;-63
2023/04/11 01:32:45;;;;;;;2.70;2.50;;;;;;;;;;5118425;28;20202;-64
2023/04/11 01:35:13;;;;;;;2.80;2.50;;;;;;;;;;5118649;28;20262;-64
2023/04/11 01:37:40;;;;;;;2.90;2.70;;;;;;;;;;5118183;28;20608;-64
2023/04/11 01:40:09;;;;;;;2.55;2.35;;;;;;;;;;5118395;28;20236;-64
2023/04/11 01:42:38;;;;;;;2.67;2.47;;;;;;;;;;5118232;28;20202;-63
2023/04/11 01:45:06;;;;;;;2.65;2.45;;;;;;;;;;5118202;28;20679;-64
2023/04/11 01:47:34;;;;;;;2.60;2.40;;;;;;;;;;5117955;28;20303;-64
2023/04/11 01:50:02;;;;;;;2.25;2.15;;;;;;;;;;5118147;28;20206;-63
2023/04/11 01:52:29;;;;;;;2.58;2.38;;;;;;;;;;5120940;28;20213;-63
2023/04/11 01:54:57;;;;;;;2.47;2.28;;;;;;;;;;5122679;28;20647;-63
2023/04/11 01:57:24;;;;;;;2.70;2.50;;;;;;;;;;5122565;28;20238;-64
2023/04/11 01:59:53;;;;;;;2.47;2.28;;;;;;;;;;5122218;28;20270;-63
2023/04/11 02:02:20;;;;;;;2.42;2.25;;;;;;;;;;5122197;28;20202;-64
2023/04/11 02:04:48;;;;;;;2.78;2.58;;;;;;;;;;5122225;28;20288;-64
2023/04/11 02:07:16;;;;;;;2.38;2.17;;;;;;;;;;5121864;28;20210;-64
2023/04/11 02:09:43;;;;;;;2.35;2.15;;;;;;;;;;5122001;28;20199;-64
2023/04/11 02:12:10;;;;;;;2.50;2.30;;;;;;;;;;5121686;28;20234;-63
2023/04/11 02:14:42;;;;;;;2.60;2.40;;;;;;;;;;5121539;28;20202;-64
2023/04/11 02:17:12;;;;;;;2.50;2.30;;;;;;;;;;5121762;28;20215;-63
2023/04/11 02:19:41;;;;;;;2.63;2.42;;;;;;;;;;5122030;28;20227;-64
2023/04/11 02:22:08;;;;;;;2.83;2.63;;;;;;;;;;5121469;28;20234;-64
2023/04/11 02:24:36;;;;;;;2.83;2.63;;;;;;;;;;5122086;28;20534;-64
2023/04/11 02:27:03;;;;;;;2.40;2.20;;;;;;;;;;5121623;28;20237;-63
2023/04/11 02:29:31;;;;;;;2.50;2.30;;;;;;;;;;5121706;28;20286;-64
2023/04/11 02:31:58;;;;;;;2.72;2.53;;;;;;;;;;5121638;28;20614;-63
2023/04/11 02:34:28;;;;;;;2.60;2.40;;;;;;;;;;5121716;28;20227;-64
2023/04/11 02:36:55;;;;;;;2.40;2.20;;;;;;;;;;5121497;28;20233;-64
2023/04/11 02:39:23;;;;;;;2.72;2.53;;;;;;;;;;5121370;28;20233;-64
2023/04/11 02:41:51;;;;;;;2.40;2.20;;;;;;;;;;5121599;28;20203;-65
2023/04/11 02:44:21;;;;;;;2.45;2.25;;;;;;;;;;5121256;28;20286;-63
2023/04/11 02:46:48;;;;;;;2.63;2.42;;;;;;;;;;5121046;28;20217;-64
2023/04/11 02:49:16;;;;;;;2.40;2.20;;;;;;;;;;5120959;28;20199;-64
2023/04/11 02:51:45;;;;;;;2.60;2.40;;;;;;;;;;5120888;28;20225;-64
2023/04/11 02:54:12;;;;;;;2.60;2.40;;;;;;;;;;5120909;28;20496;-64
2023/04/11 02:56:40;;;;;;;2.38;2.17;;;;;;;;;;5121013;28;20203;-64
2023/04/11 02:59:07;;;;;;;2.40;2.20;;;;;;;;;;5121173;28;20258;-64
2023/04/11 03:01:36;;;;;;;2.72;2.53;;;;;;;;;;5121103;28;20203;-64
2023/04/11 03:04:03;;;;;;;2.58;2.38;;;;;;;;;;5119643;28;20252;-64
2023/04/11 03:06:32;;;;;;;2.80;2.60;;;;;;;;;;5120983;28;20209;-64
2023/04/11 03:09:00;;;;;;;2.60;2.40;;;;;;;;;;5120576;28;20207;-63
2023/04/11 03:11:28;;;;;;;2.63;2.42;;;;;;;;;;5121176;28;20210;-63
2023/04/11 03:13:55;;;;;;;2.65;2.45;;;;;;;;;;5120935;28;20203;-63
2023/04/11 03:16:24;;;;;;;2.67;2.47;;;;;;;;;;5120338;28;20203;-64
2023/04/11 03:18:51;;;;;;;2.15;2.05;;;;;;;;;;5120962;28;20235;-64
2023/04/11 03:21:19;;;;;;;2.47;2.28;;;;;;;;;;5120113;28;20218;-64
2023/04/11 03:23:47;;;;;;;2.58;2.38;;;;;;;;;;5120811;28;20203;-63
2023/04/11 03:26:15;;;;;;;2.22;2.05;;;;;;;;;;5119835;28;20305;-64
2023/04/11 03:28:43;;;;;;;2.50;2.30;;;;;;;;;;5120402;28;20206;-64
2023/04/11 03:31:11;;;;;;;2.28;2.15;;;;;;;;;;5120304;28;20262;-63
2023/04/11 03:33:39;;;;;;;2.50;2.30;;;;;;;;;;5120233;28;20251;-64
2023/04/11 03:36:07;;;;;;;2.30;2.20;;;;;;;;;;5120023;28;20231;-63
2023/04/11 03:38:34;;;;;;;2.58;2.38;;;;;;;;;;5119712;28;20247;-63
2023/04/11 03:41:01;;;;;;;2.45;2.25;;;;;;;;;;5120120;28;20274;-63
2023/04/11 03:43:31;;;;;;;2.22;2.10;;;;;;;;;;5120170;28;20230;-63
2023/04/11 03:45:58;;;;;;;2.38;2.17;;;;;;;;;;5119927;28;20202;-62
2023/04/11 03:48:28;;;;;;;2.58;2.38;;;;;;;;;;5119826;28;20249;-61
2023/04/11 03:50:55;;;;;;;2.20;2.10;;;;;;;;;;5120126;28;20583;-63
2023/04/11 03:53:23;;;;;;;2.33;2.22;;;;;;;;;;5119748;28;20267;-62
2023/04/11 03:55:51;;;;;;;2.33;2.17;;;;;;;;;;5120045;28;20203;-65
2023/04/11 03:58:19;;;;;;;2.38;2.20;;;;;;;;;;5119326;28;20497;-64
2023/04/11 04:00:47;;;;;;;2.42;2.33;;;;;;;;;;5119645;28;20458;-63
2023/04/11 04:03:15;;;;;;;2.50;2.30;;;;;;;;;;5119510;28;20458;-63
2023/04/11 04:05:42;;;;;;;2.40;2.20;;;;;;;;;;5119796;28;20583;-63
2023/04/11 04:08:09;;;;;;;2.50;2.30;;;;;;;;;;5119528;28;20264;-63
2023/04/11 04:10:37;;;;;;;2.60;2.40;;;;;;;;;;5119261;28;20260;-63
2023/04/11 04:13:04;;;;;;;2.50;2.30;;;;;;;;;;5119481;28;20256;-64
2023/04/11 04:15:32;;;;;;;2.67;2.47;;;;;;;;;;5119289;28;20210;-64
2023/04/11 04:18:01;;;;;;;2.42;2.22;;;;;;;;;;5118796;28;20306;-63
2023/04/11 04:20:28;;;;;;;2.42;2.22;;;;;;;;;;5119445;28;20602;-64
2023/04/11 04:22:55;;;;;;;2.42;2.22;;;;;;;;;;5118988;28;20231;-63
2023/04/11 04:25:24;;;;;;;2.50;2.30;;;;;;;;;;5119186;28;20213;-63
2023/04/11 04:27:52;;;;;;;2.60;2.40;;;;;;;;;;5118692;28;20290;-64
2023/04/11 04:30:20;;;;;;;2.13;2.03;;;;;;;;;;5118367;28;20198;-64
2023/04/11 04:32:53;;;;;;;2.30;2.20;;;;;;;;;;5118321;28;20198;-63
2023/04/11 04:35:22;;;;;;;2.58;2.38;;;;;;;;;;5118441;28;20226;-64
2023/04/11 04:37:50;;;;;;;2.25;2.13;;;;;;;;;;5118761;28;20211;-64
2023/04/11 04:40:19;;;;;;;2.60;2.40;;;;;;;;;;5118040;28;20219;-64
2023/04/11 04:42:48;;;;;;;2.47;2.28;;;;;;;;;;5118451;28;20543;-64
2023/04/11 04:45:16;;;;;;;2.38;2.25;;;;;;;;;;5118247;28;20222;-64
2023/04/11 04:47:43;;;;;;;2.50;2.30;;;;;;;;;;5118435;28;20582;-64
2023/04/11 04:50:11;;;;;;;2.38;2.17;;;;;;;;;;5118520;28;20207;-63
2023/04/11 04:52:40;;;;;;;2.33;2.20;;;;;;;;;;5118327;28;20594;-64
2023/04/11 04:55:08;;;;;;;2.50;2.30;;;;;;;;;;5118821;28;20215;-64
2023/04/11 04:57:35;;;;;;;2.40;2.20;;;;;;;;;;5117846;28;20203;-63
2023/04/11 05:00:05;;;;;;;2.63;2.42;;;;;;;;;;5117360;28;20230;-64
2023/04/11 05:02:32;;;;;;;2.47;2.28;;;;;;;;;;5117677;28;20207;-64
2023/04/11 05:05:02;;;;;;;2.13;2.03;;;;;;;;;;5117602;28;20235;-63
2023/04/11 05:07:30;;;;;;;2.17;2.08;;;;;;;;;;5117974;28;20203;-63
2023/04/11 05:09:58;;;;;;;2.40;2.22;;;;;;;;;;5117902;28;20206;-63
2023/04/11 05:12:26;;;;;;;2.10;2.00;;;;;;;;;;5117728;28;20248;-63
2023/04/11 05:14:55;;;;;;;2.08;1.98;;;;;;;;;;5118013;28;20271;-64
2023/04/11 05:17:23;;;;;;;2.50;2.30;;;;;;;;;;5117968;28;20578;-64
2023/04/11 05:19:50;;;;;;;2.47;2.30;;;;;;;;;;5118056;28;20314;-64
2023/04/11 05:22:17;;;;;;;2.40;2.20;;;;;;;;;;5117401;28;20307;-64
2023/04/11 05:24:45;;;;;;;2.30;2.20;;;;;;;;;;5116930;28;20239;-63
2023/04/11 05:27:13;;;;;;;2.20;2.10;;;;;;;;;;5116777;28;20502;-64
2023/04/11 05:29:41;;;;;;;2.30;2.20;;;;;;;;;;5117040;28;20594;-64
2023/04/11 05:32:08;;;;;;;2.13;2.03;;;;;;;;;;5117594;28;20272;-63
2023/04/11 05:34:50;;;;;;;2.25;2.15;;;;;;;;;;5117584;28;20203;-63
2023/04/11 05:37:17;;;;;;;2.20;2.00;;;;;;;;;;5116584;28;20202;-64
2023/04/11 05:39:45;;;;;;;2.50;2.30;;;;;;;;;;5116809;28;20226;-63
2023/04/11 05:42:13;;;;;;;2.47;2.28;;;;;;;;;;5117048;28;20301;-64
2023/04/11 05:44:41;;;;;;;2.97;2.38;;;;;;;;;;5116770;28;20203;-64
2023/04/11 05:47:08;;;;;;;3.40;2.58;;;;;;;;;;5116974;28;20274;-63
2023/04/11 05:49:35;;;;;;;6.43;2.70;;;;;;;;;;5116760;28;20199;-64
2023/04/11 05:52:03;;;;;;;4.55;2.92;;;;;;;;;;5116544;28;20203;-64
2023/04/11 05:54:33;;;;;;;4.65;2.80;;;;;;;;;;5116621;28;20256;-63
2023/04/11 05:57:02;;;;;;;6.07;3.30;;;;;;;;;;5116689;28;20210;-63
2023/04/11 05:59:31;;;;;;;4.18;3.03;;;;;;;;;;5116804;28;20279;-64
2023/04/11 06:02:00;;;;;;;3.85;2.83;;;;;;;;;;5116828;28;20246;-63
2023/04/11 06:04:27;;;;;;;3.25;2.92;;;;;;;;;;5116229;28;20271;-64
2023/04/11 06:06:55;;;;;;;5.70;2.97;;;;;;;;;;5116368;28;20214;-63
2023/04/11 06:09:22;;;;;;;3.65;2.88;;;;;;;;;;5116639;28;20232;-63
2023/04/11 06:11:50;;;;;;;5.05;3.15;;;;;;;;;;5115869;28;20571;-63
2023/04/11 06:14:17;;;;;;;4.82;3.10;;;;;;;;;;5116450;28;20305;-63
2023/04/11 06:16:44;;;;;;;4.45;3.10;;;;;;;;;;5115617;28;20195;-64
2023/04/11 06:19:13;;;;;;;4.97;3.08;;;;;;;;;;5116200;28;20210;-63
2023/04/11 06:21:40;;;;;;;4.55;2.60;;;;;;;;;;5116395;28;20242;-64
2023/04/11 06:24:10;;;;;;;4.45;3.25;;;;;;;;;;5116718;28;20206;-63
2023/04/11 06:26:38;;;;;;;4.18;2.80;;;;;;;;;;5116350;28;20203;-63
2023/04/11 06:29:06;;;;;;;4.75;3.22;;;;;;;;;;5116180;28;20617;-63
2023/04/11 06:31:33;;;;;;;5.45;3.20;;;;;;;;;;5115920;28;20207;-63
2023/04/11 06:34:00;;;;;;;5.20;3.10;;;;;;;;;;5116346;28;20515;-63
2023/04/11 06:36:29;;;;;;;3.65;2.88;;;;;;;;;;5116738;28;20520;-63
2023/04/11 06:38:56;;;;;;;3.80;2.88;;;;;;;;;;5118902;28;20211;-63
2023/04/11 06:41:23;;;;;;;6.18;3.05;;;;;;;;;;5119710;28;20287;-64
2023/04/11 06:43:51;;;;;;;4.82;3.15;;;;;;;;;;5119636;28;20206;-63
2023/04/11 06:46:18;;;;;;;5.22;3.00;;;;;;;;;;5120047;28;20199;-63
2023/04/11 06:48:45;;;;;;;4.78;3.10;;;;;;;;;;5119557;28;20207;-64
2023/04/11 06:51:13;;;;;;;3.90;3.15;;;;;;;;;;5120048;28;20238;-64
2023/04/11 06:53:41;;;;;;;4.53;3.17;;;;;;;;;;5119658;28;20209;-64
2023/04/11 06:56:09;;;;;;;5.40;3.30;;;;;;;;;;5119517;28;20215;-63
2023/04/11 06:58:37;;;;;;;3.97;3.20;;;;;;;;;;5119226;28;20639;-64
2023/04/11 07:01:04;;;;;;;5.93;3.40;;;;;;;;;;5119117;28;20504;-63
2023/04/11 07:03:32;;;;;;;3.70;2.92;;;;;;;;;;5119088;28;20663;-64
2023/04/11 07:05:59;;;;;;;3.78;3.10;;;;;;;;;;5118895;28;20297;-63
2023/04/11 07:08:27;;;;;;;4.50;3.10;;;;;;;;;;5119377;28;20289;-63
2023/04/11 07:10:56;;;;;;;3.88;2.75;;;;;;;;;;5119605;28;20202;-63
2023/04/11 07:13:23;;;;;;;5.68;2.90;;;;;;;;;;5119141;28;20238;-63
2023/04/11 07:15:50;;;;;;;4.72;2.70;;;;;;;;;;5119147;28;20213;-63
2023/04/11 07:18:17;;;;;;;5.95;3.10;;;;;;;;;;5118609;28;20212;-63
2023/04/11 07:20:45;;;;;;;4.10;2.70;;;;;;;;;;5119022;28;20230;-63
2023/04/11 07:23:12;;;;;;;5.13;3.00;;;;;;;;;;5119153;28;20279;-63
2023/04/11 07:25:39;;;;;;;5.38;2.80;;;;;;;;;;5118768;28;20211;-63
2023/04/11 07:28:08;;;;;;;5.53;3.03;;;;;;;;;;5118495;28;20579;-63
2023/04/11 07:30:36;;;;;;;4.55;2.85;;;;;;;;;;5118951;28;20604;-63
2023/04/11 07:33:03;;;;;;;4.78;2.92;;;;;;;;;;5115992;28;20293;-64
2023/04/11 07:35:33;;;;;;;3.08;2.78;;;;;;;;;;5097543;28;20215;-64
2023/04/11 07:38:01;;;;;;;2.97;2.58;;;;;;;;;;5098253;28;20264;-63
2023/04/11 07:40:28;;;;;;;4.25;2.70;;;;;;;;;;5098460;28;20318;-63
2023/04/11 07:42:55;;;;;;;2.65;2.40;;;;;;;;;;5098309;28;20221;-63
2023/04/11 07:45:24;;;;;;;4.68;2.58;;;;;;;;;;5098599;28;20211;-63
2023/04/11 07:47:51;;;;;;;4.18;2.25;;;;;;;;;;5098403;28;20276;-63
2023/04/11 07:50:18;;;;;;;3.22;2.47;;;;;;;;;;5097465;28;20207;-63
2023/04/11 07:52:46;;;;;;;4.88;2.85;;;;;;;;;;5097271;28;20226;-63
2023/04/11 07:55:13;;;;;;;4.47;2.70;;;;;;;;;;5097675;28;20290;-63
2023/04/11 07:57:40;;;;;;;3.40;2.47;;;;;;;;;;5097408;28;20210;-63
2023/04/11 08:00:10;;;;;;;3.13;2.58;;;;;;;;;;5097732;28;20227;-63
2023/04/11 08:02:38;;;;;;;3.13;2.10;;;;;;;;;;5097165;28;20211;-63
2023/04/11 08:05:08;;;;;;;3.10;2.28;;;;;;;;;;5097637;28;20253;-63
2023/04/11 08:07:35;;;;;;;2.97;2.03;;;;;;;;;;5097267;28;20207;-63
2023/04/11 08:10:03;;;;;;;3.67;2.15;;;;;;;;;;5097146;28;20196;-63
2023/04/11 08:12:31;;;;;;;3.92;2.13;;;;;;;;;;5097353;28;20576;-63
2023/04/11 08:14:58;;;;;;;3.13;2.17;;;;;;;;;;5097518;28;20683;-63
2023/04/11 08:17:27;;;;;;;2.65;2.03;;;;;;;;;;5096672;28;20257;-63
2023/04/11 08:19:56;;;;;;;2.50;1.80;;;;;;;;;;5096835;28;20614;-63
2023/04/11 08:22:23;;;;;;;2.30;1.80;;;;;;;;;;5096990;28;20227;-63
2023/04/11 08:24:51;;;;;;;3.22;2.20;;;;;;;;;;5096528;28;20468;-63
2023/04/11 08:27:18;;;;;;;3.60;2.20;;;;;;;;;;5097468;28;20603;-63
2023/04/11 08:29:45;;;;;;;3.38;2.50;;;;;;;;;;5096795;28;20207;-63
2023/04/11 08:32:12;;;;;;;2.78;1.92;;;;;;;;;;5096989;28;20234;-63
2023/04/11 08:34:40;;;;;;;2.67;2.13;;;;;;;;;;5096530;28;20211;-63
2023/04/11 08:37:08;;;;;;;2.80;1.90;;;;;;;;;;5096486;28;20237;-63
2023/04/11 08:39:36;;;;;;;3.45;2.03;;;;;;;;;;5097366;28;20231;-64
2023/04/11 08:42:03;;;;;;;1.83;1.65;;;;;;;;;;5096682;28;20231;-63
2023/04/11 08:44:31;;;;;;;2.38;1.80;;;;;;;;;;5096584;28;20212;-63
2023/04/11 08:46:58;;;;;;;3.13;1.88;;;;;;;;;;5096950;28;20284;-64
2023/04/11 08:49:25;;;;;;;2.22;1.60;;;;;;;;;;5096681;28;20564;-63
2023/04/11 08:51:55;;;;;;;1.77;1.65;;;;;;;;;;5096602;28;20456;-63
2023/04/11 08:54:23;;;;;;;2.38;1.58;;;;;;;;;;5096696;28;20294;-63
2023/04/11 08:56:50;;;;;;;2.45;1.42;;;;;;;;;;5096316;28;20280;-63
2023/04/11 08:59:18;;;;;;;2.05;1.70;;;;;;;;;;5096447;28;20530;-63
2023/04/11 09:01:45;;;;;;;2.17;1.63;;;;;;;;;;5095681;28;20691;-63
2023/04/11 09:04:12;;;;;;;2.10;1.60;;;;;;;;;;5096803;28;20261;-63
2023/04/11 09:06:41;;;;;;;1.73;1.58;;;;;;;;;;5097413;28;20560;-63
2023/04/11 09:09:28;;;;;;;2.13;1.60;;;;;;;;;;5096156;28;20295;-63
2023/04/11 09:11:57;;;;;;;2.58;1.60;;;;;;;;;;5096099;28;20199;-63
2023/04/11 09:14:25;;;;;;;1.92;1.58;;;;;;;;;;5096255;28;20203;-63
2023/04/11 09:16:54;;;;;;;1.85;1.60;;;;;;;;;;5095785;28;20291;-63
2023/04/11 09:19:25;;;;;;;1.67;1.45;;;;;;;;;;5095742;28;20303;-63
2023/04/11 09:21:53;;;;;;;2.03;1.40;;;;;;;;;;5096552;28;20307;-63
2023/04/11 09:24:21;;;;;;;1.70;1.50;;;;;;;;;;5096201;28;20203;-64
2023/04/11 09:26:49;;;;;;;1.58;1.40;;;;;;;;;;5095957;28;20598;-63
2023/04/11 09:29:36;;;;;;;2.45;1.40;;;;;;;;;;5096630;28;20245;-64
2023/04/11 09:32:03;;;;;;;2.03;1.35;;;;;;;;;;5095608;28;20278;-63
2023/04/11 09:34:30;;;;;;;1.60;1.10;;;;;;;;;;5095912;28;20211;-64
2023/04/11 09:36:58;;;;;;;1.27;1.17;;;;;;;;;;5095566;28;20350;-64
2023/04/11 09:39:27;;;;;;;1.63;1.30;;;;;;;;;;5095118;28;20215;-63
2023/04/11 09:41:54;;;;;;;1.55;1.33;;;;;;;;;;5093853;28;20230;-63
2023/04/11 09:44:35;;;;;;;1.75;1.10;;;;;;;;;;5095059;28;20249;-63
2023/04/11 09:47:02;;;;;;;2.75;1.20;;;;;;;;;;5095619;28;20285;-64
2023/04/11 09:49:30;;;;;;;2.40;1.30;;;;;;;;;;5095859;28;20204;-63
2023/04/11 09:51:58;;;;;;;1.60;1.35;;;;;;;;;;5095658;28;20299;-63
2023/04/11 09:54:28;;;;;;;1.77;1.30;;;;;;;;;;5095411;28;20275;-63
2023/04/11 09:56:55;;;;;;;1.88;1.15;;;;;;;;;;5095119;28;20227;-63
2023/04/11 09:59:24;;;;;;;1.40;1.00;;;;;;;;;;5094660;28;20512;-63
2023/04/11 10:01:51;;;;;;;1.58;1.30;;;;;;;;;;5094932;28;20327;-63
2023/04/11 10:04:19;;;;;;;2.55;1.25;;;;;;;;;;5094645;28;20252;-63
2023/04/11 10:06:50;;;;;;;1.40;1.17;;;;;;;;;;5094618;28;20231;-63
2023/04/11 10:09:18;;;;;;;1.35;1.15;;;;;;;;;;5095184;28;20314;-63
2023/04/11 10:11:45;;;;;;;1.65;1.20;;;;;;;;;;5095155;28;20199;-64
2023/04/11 10:14:27;;;;;;;2.20;1.10;;;;;;;;;;5099274;28;20200;-63
2023/04/11 10:17:13;;;;;;;1.50;1.20;;;;;;;;;;5097016;28;20212;-63
2023/04/11 10:19:42;;;;;;;1.00;0.90;;;;;;;;;;5099731;28;20276;-63
2023/04/11 10:22:10;;;;;;;1.38;0.98;;;;;;;;;;5098275;28;20241;-63
2023/04/11 10:24:38;;;;;;;1.65;1.17;;;;;;;;;;5099153;28;20203;-63
2023/04/11 10:27:06;;;;;;;1.10;0.82;;;;;;;;;;5098880;28;20207;-63
2023/04/11 10:29:49;;;;;;;1.45;1.27;;;;;;;;;;5098720;28;20204;-63
2023/04/11 10:32:23;;;;;;;0.82;0.80;;;;;;;;;;5098869;28;20616;-63
2023/04/11 10:35:09;;;;;;;0.90;0.90;;;;;;;;;;5098627;28;20214;-63
2023/04/11 10:37:38;;;;;;;1.65;1.00;;;;;;;;;;5098190;28;20199;-63
2023/04/11 10:40:08;;;;;;;1.10;0.90;;;;;;;;;;5098018;28;20212;-63
2023/04/11 10:42:36;;;;;;;0.80;0.80;;;;;;;;;;5098543;28;20338;-63
2023/04/11 10:45:17;;;;;;;0.82;0.77;;;;;;;;;;5097648;28;20207;-63
2023/04/11 10:47:45;;;;;;;1.17;0.90;;;;;;;;;;5099066;28;20208;-63
2023/04/11 10:50:31;;;;;;;1.25;1.05;;;;;;;;;;5098621;28;20207;-63
2023/04/11 10:53:00;;;;;;;1.02;0.82;;;;;;;;;;5098419;28;20772;-63
2023/04/11 10:55:28;;;;;;;1.00;0.90;;;;;;;;;;5098591;28;20494;-63
2023/04/11 10:58:05;;;;;;;1.05;0.95;;;;;;;;;;5098785;28;20276;-63
2023/04/11 11:01:05;;;;;;;1.00;0.77;;;;;;;;;;5098581;28;20231;-63
2023/04/11 11:03:34;;;;;;;1.35;1.08;;;;;;;;;;5097881;28;20211;-63
2023/04/11 11:06:02;;;;;;;1.33;1.00;;;;;;;;;;5096790;28;20490;-63
2023/04/11 11:08:31;;;;;;;1.00;0.90;;;;;;;;;;5098785;28;20242;-63
2023/04/11 11:11:01;;;;;;;1.42;1.00;;;;;;;;;;5098412;28;20545;-63
2023/04/11 11:13:39;;;;;;;1.25;1.10;;;;;;;;;;5097944;28;20785;-63
2023/04/11 11:16:07;;;;;;;1.05;0.70;;;;;;;;;;5097432;28;20207;-63
2023/04/11 11:18:34;;;;;;;1.60;0.80;;;;;;;;;;5098048;28;20204;-63
2023/04/11 11:21:02;;;;;;;1.75;0.85;;;;;;;;;;5097571;28;20223;-63
2023/04/11 11:23:31;;;;;;;1.10;0.70;;;;;;;;;;5096938;28;20316;-63
2023/04/11 11:26:00;;;;;;;0.80;0.70;;;;;;;;;;5098218;28;20439;-64
2023/04/11 11:28:27;;;;;;;1.48;0.90;;;;;;;;;;5097371;28;20676;-62
2023/04/11 11:30:55;;;;;;;1.27;0.90;;;;;;;;;;5097574;28;20244;-62
2023/04/11 11:33:23;;;;;;;0.80;0.80;;;;;;;;;;5098019;28;20199;-62
2023/04/11 11:35:52;;;;;;;0.90;0.80;;;;;;;;;;5097902;28;20212;-64
2023/04/11 11:38:20;;;;;;;1.92;0.77;;;;;;;;;;5098084;28;20271;-62
2023/04/11 11:40:49;;;;;;;2.80;1.00;;;;;;;;;;5098842;28;20215;-62
2023/04/11 11:43:16;;;;;;;0.80;0.75;;;;;;;;;;5098140;28;20265;-62
2023/04/11 11:45:44;;;;;;;1.10;0.90;;;;;;;;;;5097242;28;20507;-62
2023/04/11 11:48:20;;;;;;;1.00;0.80;;;;;;;;;;5098396;28;20211;-62
2023/04/11 11:50:47;;;;;;;2.00;0.80;;;;;;;;;;5097518;28;20298;-64
2023/04/11 11:53:15;;;;;;;3.22;0.82;;;;;;;;;;5097644;28;20622;-62
2023/04/11 11:55:43;;;;;;;1.15;0.70;;;;;;;;;;5097098;28;20231;-63
2023/04/11 11:58:11;;;;;;;1.00;0.60;;;;;;;;;;5097546;28;20203;-63
2023/04/11 12:00:40;;;;;;;0.60;0.60;;;;;;;;;;5097484;28;20200;-63
2023/04/11 12:03:09;;;;;;;2.80;0.60;;;;;;;;;;5097293;28;20227;-64
2023/04/11 12:05:37;;;;;;;1.00;0.70;;;;;;;;;;5096726;28;20200;-64
2023/04/11 12:08:06;;;;;;;2.15;0.80;;;;;;;;;;5096375;28;20349;-64
2023/04/11 12:10:37;;;;;;;1.33;0.73;;;;;;;;;;5096294;28;20230;-64
2023/04/11 12:13:13;;;;;;;0.70;0.70;;;;;;;;;;5096121;28;20282;-64
2023/04/11 12:15:41;;;;;;;1.45;0.60;;;;;;;;;;5096797;28;20530;-63
2023/04/11 12:18:09;;;;;;;0.70;0.68;;;;;;;;;;5096761;28;20311;-63
2023/04/11 12:20:36;;;;;;;0.80;0.77;;;;;;;;;;5096358;28;20214;-63
2023/04/11 12:23:03;;;;;;;1.30;0.75;;;;;;;;;;5095944;28;20239;-64
2023/04/11 12:25:31;;;;;;;1.70;0.70;;;;;;;;;;5096135;28;20207;-63
2023/04/11 12:27:58;;;;;;;0.75;0.70;;;;;;;;;;5095897;28;20253;-64
2023/04/11 12:30:27;;;;;;;0.82;0.70;;;;;;;;;;5096428;28;20590;-63
2023/04/11 12:32:55;;;;;;;1.00;0.90;;;;;;;;;;5096531;28;20207;-64
2023/04/11 12:35:22;;;;;;;2.17;0.90;;;;;;;;;;5096416;28;20747;-63
2023/04/11 12:37:49;;;;;;;1.10;0.90;;;;;;;;;;5095544;28;20203;-64
2023/04/11 12:40:17;;;;;;;1.60;0.60;;;;;;;;;;5095651;28;20235;-64
2023/04/11 12:42:44;;;;;;;1.88;0.95;;;;;;;;;;5096291;28;20223;-63
2023/04/11 12:45:12;;;;;;;0.88;0.80;;;;;;;;;;5096652;28;20211;-63
2023/04/11 12:47:41;;;;;;;1.30;0.75;;;;;;;;;;5096124;28;20517;-63
2023/04/11 12:50:09;;;;;;;0.90;0.68;;;;;;;;;;5095423;28;20617;-63
2023/04/11 12:52:37;;;;;;;1.25;0.70;;;;;;;;;;5094954;28;20436;-64
2023/04/11 12:55:04;;;;;;;1.85;0.93;;;;;;;;;;5094636;28;20629;-64
2023/04/11 12:57:31;;;;;;;0.60;0.60;;;;;;;;;;5095140;28;20210;-62
2023/04/11 12:59:59;;;;;;;2.28;0.90;;;;;;;;;;5095437;28;20210;-63
2023/04/11 13:02:26;;;;;;;1.00;0.75;;;;;;;;;;5095356;28;20322;-64
2023/04/11 13:04:55;;;;;;;2.90;0.80;;;;;;;;;;5095486;28;20214;-64
2023/04/11 13:07:22;;;;;;;1.27;1.00;;;;;;;;;;5094928;28;20261;-63
2023/04/11 13:09:50;;;;;;;1.73;0.70;;;;;;;;;;5095594;28;20207;-64
2023/04/11 13:12:17;;;;;;;1.15;0.80;;;;;;;;;;5095553;28;20618;-64
2023/04/11 13:14:45;;;;;;;1.58;0.70;;;;;;;;;;5095148;28;20196;-63
2023/04/11 13:17:12;;;;;;;1.08;0.60;;;;;;;;;;5094680;28;20250;-64
2023/04/11 13:19:39;;;;;;;0.85;0.63;;;;;;;;;;5094196;28;20207;-64
2023/04/11 13:22:08;;;;;;;1.88;0.70;;;;;;;;;;5094647;28;20299;-63
2023/04/11 13:24:35;;;;;;;1.77;0.73;;;;;;;;;;5095911;28;20288;-64
2023/04/11 13:27:03;;;;;;;2.03;0.60;;;;;;;;;;5094713;28;20261;-63
2023/04/11 13:29:30;;;;;;;2.78;0.70;;;;;;;;;;5095059;28;20658;-64
2023/04/11 13:31:57;;;;;;;0.70;0.70;;;;;;;;;;5095468;28;20233;-63
2023/04/11 13:34:25;;;;;;;0.88;0.80;;;;;;;;;;5095020;28;20203;-63
2023/04/11 13:36:53;;;;;;;1.27;0.80;;;;;;;;;;5094975;28;20196;-63
2023/04/11 13:39:21;;;;;;;2.70;0.80;;;;;;;;;;5093397;28;20583;-63
2023/04/11 13:41:49;;;;;;;1.23;0.60;;;;;;;;;;5093275;28;20650;-63
2023/04/11 13:44:16;;;;;;;1.08;0.60;;;;;;;;;;5094660;28;20264;-63
2023/04/11 13:46:43;;;;;;;1.08;0.60;;;;;;;;;;5093856;28;20196;-63
2023/04/11 13:49:11;;;;;;;1.77;0.70;;;;;;;;;;5094480;28;20268;-63
2023/04/11 13:51:38;;;;;;;2.65;0.80;;;;;;;;;;5094999;28;20211;-63
2023/04/11 13:54:05;;;;;;;1.65;0.82;;;;;;;;;;5095156;28;20211;-63
2023/04/11 13:56:34;;;;;;;1.95;0.80;;;;;;;;;;5095216;28;20268;-63
2023/04/11 13:59:01;;;;;;;1.30;0.70;;;;;;;;;;5094328;28;20211;-63
2023/04/11 14:01:29;;;;;;;4.63;1.00;;;;;;;;;;5094336;28;20204;-63
2023/04/11 14:03:56;;;;;;;3.85;1.00;;;;;;;;;;5095010;28;20212;-63
2023/04/11 14:06:23;;;;;;;3.10;0.70;;;;;;;;;;5094982;28;20215;-63
2023/04/11 14:08:50;;;;;;;2.60;0.60;;;;;;;;;;5094624;28;20204;-63
2023/04/11 14:11:18;;;;;;;2.17;0.90;;;;;;;;;;5095142;28;20199;-64
2023/04/11 14:13:46;;;;;;;1.35;0.75;;;;;;;;;;5094397;28;20222;-63
2023/04/11 14:16:14;;;;;;;2.63;0.70;;;;;;;;;;5095927;28;20216;-63
2023/04/11 14:18:41;;;;;;;2.05;0.70;;;;;;;;;;5095202;28;20211;-63
2023/04/11 14:21:08;;;;;;;3.00;0.70;;;;;;;;;;5095051;28;20208;-63
2023/04/11 14:23:36;;;;;;;1.27;0.80;;;;;;;;;;5094561;28;20292;-63
2023/04/11 14:26:03;;;;;;;2.03;0.98;;;;;;;;;;5094767;28;20203;-63
2023/04/11 14:28:30;;;;;;;1.20;0.80;;;;;;;;;;5094601;28;20200;-63
2023/04/11 14:30:59;;;;;;;1.55;0.85;;;;;;;;;;5094460;28;20602;-63
2023/04/11 14:33:27;;;;;;;1.23;0.77;;;;;;;;;;5094569;28;20200;-63
2023/04/11 14:35:54;;;;;;;2.03;0.75;;;;;;;;;;5093270;28;20210;-64
2023/04/11 14:38:21;;;;;;;1.85;0.60;;;;;;;;;;5094813;28;20258;-63
2023/04/11 14:40:48;;;;;;;1.00;0.80;;;;;;;;;;5094510;28;20777;-63
2023/04/11 14:43:16;;;;;;;1.27;0.80;;;;;;;;;;5094296;28;20246;-63
2023/04/11 14:45:43;;;;;;;0.85;0.80;;;;;;;;;;5094038;28;20609;-63
2023/04/11 14:48:12;;;;;;;1.45;0.75;;;;;;;;;;5094049;28;20261;-63
2023/04/11 14:50:39;;;;;;;1.02;0.77;;;;;;;;;;5094356;28;20200;-63